createdAt,value
2019-01-24T00:00:08.680Z,-3.30
2019-01-24T00:01:08.700Z,-3.25
2019-01-24T00:02:08.713Z,-3.23
2019-01-24T00:03:08.727Z,-3.37
2019-01-24T00:04:08.724Z,-3.40
2019-01-24T00:05:08.747Z,-3.48
2019-01-24T00:06:08.739Z,-3.52
2019-01-24T00:07:08.778Z,-3.52
2019-01-24T00:08:08.819Z,-3.54
2019-01-24T00:09:08.806Z,-3.56
2019-01-24T00:10:08.790Z,-3.59
2019-01-24T00:11:08.783Z,-3.70
2019-01-24T00:12:08.840Z,-3.75
2019-01-24T00:13:08.816Z,-3.72
2019-01-24T00:14:08.813Z,-3.69
2019-01-24T00:15:08.812Z,-3.77
2019-01-24T00:16:08.866Z,-3.74
2019-01-24T00:17:08.850Z,-3.72
2019-01-24T00:18:08.913Z,-3.69
2019-01-24T00:19:08.843Z,-3.69
2019-01-24T00:20:08.864Z,-3.80
2019-01-24T00:21:08.871Z,-3.77
2019-01-24T00:22:08.878Z,-3.86
2019-01-24T00:23:08.928Z,-3.83
2019-01-24T00:24:08.924Z,-3.78
2019-01-24T00:25:08.924Z,-3.74
2019-01-24T00:26:08.914Z,-3.77
2019-01-24T00:28:09.008Z,-3.70
2019-01-24T00:29:08.955Z,-3.69
2019-01-24T00:30:08.950Z,-3.72
2019-01-24T00:31:08.987Z,-3.77
2019-01-24T00:32:08.973Z,-3.74
2019-01-24T00:33:08.982Z,-3.72
2019-01-24T00:34:08.984Z,-3.86
2019-01-24T00:35:09.009Z,-3.83
2019-01-24T00:36:09.002Z,-3.85
2019-01-24T00:37:09.100Z,-3.91
2019-01-24T00:38:09.056Z,-3.82
2019-01-24T00:39:09.072Z,-3.95
2019-01-24T00:40:09.034Z,-3.89
2019-01-24T00:41:09.088Z,-3.82
2019-01-24T00:42:09.057Z,-3.82
2019-01-24T00:43:09.121Z,-3.99
2019-01-24T00:44:09.111Z,-3.98
2019-01-24T00:45:09.097Z,-3.85
2019-01-24T00:46:09.093Z,-3.86
2019-01-24T00:47:09.095Z,-3.89
2019-01-24T00:48:09.111Z,-3.83
2019-01-24T00:49:09.139Z,-3.77
2019-01-24T00:50:09.148Z,-3.83
2019-01-24T00:51:09.124Z,-3.83
2019-01-24T00:52:09.126Z,-3.75
2019-01-24T00:53:09.143Z,-3.82
2019-01-24T00:54:09.148Z,-3.69
2019-01-24T00:55:09.163Z,-3.69
2019-01-24T00:56:09.166Z,-3.66
2019-01-24T00:57:09.184Z,-3.67
2019-01-24T00:58:09.213Z,-3.64
2019-01-24T00:59:09.238Z,-3.70
2019-01-24T01:00:09.257Z,-3.74
2019-01-24T01:01:09.283Z,-3.78
2019-01-24T01:02:09.285Z,-3.82
2019-01-24T01:03:09.223Z,-3.77
2019-01-24T01:04:09.326Z,-3.77
2019-01-24T01:05:09.260Z,-3.88
2019-01-24T01:06:09.261Z,-3.74
2019-01-24T01:07:09.279Z,-3.78
2019-01-24T01:08:09.289Z,-3.72
2019-01-24T01:09:09.329Z,-3.80
2019-01-24T01:10:09.285Z,-3.86
2019-01-24T01:11:09.309Z,-3.83
2019-01-24T01:12:09.343Z,-3.74
2019-01-24T01:13:09.397Z,-3.88
2019-01-24T01:14:09.318Z,-3.95
2019-01-24T01:15:09.333Z,-3.88
2019-01-24T01:16:09.349Z,-3.82
2019-01-24T01:17:09.352Z,-3.89
2019-01-24T01:18:09.378Z,-3.91
2019-01-24T01:19:09.376Z,-3.91
2019-01-24T01:20:09.394Z,-3.80
2019-01-24T01:21:09.378Z,-3.86
2019-01-24T01:22:09.552Z,-3.88
2019-01-24T01:23:09.404Z,-3.83
2019-01-24T01:24:09.412Z,-3.88
2019-01-24T01:25:09.415Z,-3.86
2019-01-24T01:26:09.429Z,-3.80
2019-01-24T01:27:09.439Z,-3.82
2019-01-24T01:28:09.467Z,-3.72
2019-01-24T01:29:09.440Z,-3.83
2019-01-24T01:30:09.507Z,-3.74
2019-01-24T01:31:09.460Z,-3.74
2019-01-24T01:32:09.522Z,-3.86
2019-01-24T01:33:09.498Z,-3.85
2019-01-24T01:34:09.494Z,-3.89
2019-01-24T01:35:09.532Z,-3.80
2019-01-24T01:36:09.503Z,-3.78
2019-01-24T01:37:09.568Z,-3.69
2019-01-24T01:38:09.551Z,-3.85
2019-01-24T01:39:09.540Z,-3.83
2019-01-24T01:40:09.567Z,-3.74
2019-01-24T01:41:09.568Z,-3.72
2019-01-24T01:42:09.640Z,-3.72
2019-01-24T01:43:09.606Z,-3.75
2019-01-24T01:44:09.629Z,-3.67
2019-01-24T01:45:09.776Z,-3.83
2019-01-24T01:46:09.633Z,-3.86
2019-01-24T01:47:09.630Z,-3.83
2019-01-24T01:48:09.642Z,-3.83
2019-01-24T01:49:09.617Z,-3.78
2019-01-24T01:50:09.630Z,-3.80
2019-01-24T01:51:09.641Z,-3.75
2019-01-24T01:52:09.667Z,-3.85
2019-01-24T01:53:09.698Z,-3.83
2019-01-24T01:54:09.743Z,-3.74
2019-01-24T01:55:09.681Z,-3.74
2019-01-24T01:56:09.732Z,-3.72
2019-01-24T01:57:09.681Z,-3.70
2019-01-24T01:58:09.700Z,-3.64
2019-01-24T01:59:09.732Z,-3.63
2019-01-24T02:00:09.750Z,-3.69
2019-01-24T02:01:09.712Z,-3.70
2019-01-24T02:02:09.732Z,-3.63
2019-01-24T02:03:09.747Z,-3.51
2019-01-24T02:04:09.749Z,-3.56
2019-01-24T02:05:09.746Z,-3.56
2019-01-24T02:06:09.758Z,-3.55
2019-01-24T02:07:09.802Z,-3.59
2019-01-24T02:08:09.781Z,-3.55
2019-01-24T02:09:09.798Z,-3.52
2019-01-24T02:10:09.795Z,-3.51
2019-01-24T02:11:09.803Z,-3.54
2019-01-24T02:12:09.819Z,-3.41
2019-01-24T02:13:09.817Z,-3.27
2019-01-24T02:14:09.837Z,-3.25
2019-01-24T02:15:09.835Z,-3.31
2019-01-24T02:16:09.856Z,-3.30
2019-01-24T02:17:09.970Z,-3.45
2019-01-24T02:18:09.893Z,-3.51
2019-01-24T02:19:09.870Z,-3.40
2019-01-24T02:20:09.892Z,-3.44
2019-01-24T02:21:09.902Z,-3.41
2019-01-24T02:22:09.903Z,-3.48
2019-01-24T02:23:09.907Z,-3.38
2019-01-24T02:24:09.919Z,-3.44
2019-01-24T02:25:09.928Z,-3.38
2019-01-24T02:26:09.933Z,-3.40
2019-01-24T02:27:09.967Z,-3.40
2019-01-24T02:28:09.956Z,-3.44
2019-01-24T02:29:09.963Z,-3.33
2019-01-24T02:30:09.968Z,-3.28
2019-01-24T02:31:09.990Z,-3.23
2019-01-24T02:32:10.018Z,-3.31
2019-01-24T02:33:10.001Z,-3.19
2019-01-24T02:34:10.041Z,-3.35
2019-01-24T02:35:10.027Z,-3.41
2019-01-24T02:36:10.031Z,-3.20
2019-01-24T02:37:10.030Z,-3.15
2019-01-24T02:38:10.045Z,-3.06
2019-01-24T02:39:10.078Z,-3.12
2019-01-24T02:40:10.068Z,-3.20
2019-01-24T02:41:10.076Z,-3.23
2019-01-24T02:42:10.077Z,-3.17
2019-01-24T02:43:10.108Z,-2.95
2019-01-24T02:44:10.093Z,-3.04
2019-01-24T02:45:10.118Z,-3.10
2019-01-24T02:46:10.151Z,-3.12
2019-01-24T02:47:10.126Z,-3.07
2019-01-24T02:48:10.146Z,-3.22
2019-01-24T02:49:10.153Z,-3.23
2019-01-24T02:50:10.147Z,-3.25
2019-01-24T02:51:10.168Z,-3.25
2019-01-24T02:52:10.187Z,-3.38
2019-01-24T02:53:10.183Z,-3.34
2019-01-24T02:54:10.247Z,-3.40
2019-01-24T02:55:10.211Z,-3.40
2019-01-24T02:56:10.207Z,-3.20
2019-01-24T02:57:10.240Z,-3.20
2019-01-24T02:58:10.228Z,-3.20
2019-01-24T02:59:10.337Z,-3.22
2019-01-24T03:00:10.245Z,-3.25
2019-01-24T03:01:10.273Z,-3.30
2019-01-24T03:02:10.267Z,-3.33
2019-01-24T03:03:10.293Z,-3.28
2019-01-24T03:04:10.294Z,-3.25
2019-01-24T03:05:10.292Z,-3.20
2019-01-24T03:06:10.333Z,-3.20
2019-01-24T03:07:10.314Z,-3.19
2019-01-24T03:08:10.315Z,-3.22
2019-01-24T03:09:10.323Z,-3.34
2019-01-24T03:10:10.388Z,-3.46
2019-01-24T03:11:10.344Z,-3.41
2019-01-24T03:12:10.386Z,-3.44
2019-01-24T03:13:10.362Z,-3.27
2019-01-24T03:14:10.387Z,-3.13
2019-01-24T03:15:10.385Z,-3.07
2019-01-24T03:16:10.391Z,-3.12
2019-01-24T03:17:10.459Z,-3.04
2019-01-24T03:18:10.427Z,-3.01
2019-01-24T03:19:10.418Z,-3.09
2019-01-24T03:20:10.465Z,-3.12
2019-01-24T03:21:10.456Z,-3.10
2019-01-24T03:22:10.453Z,-3.17
2019-01-24T03:23:10.479Z,-3.25
2019-01-24T03:24:10.487Z,-3.22
2019-01-24T03:25:10.505Z,-3.23
2019-01-24T03:26:10.491Z,-3.23
2019-01-24T03:27:10.507Z,-3.13
2019-01-24T03:28:10.516Z,-3.16
2019-01-24T03:29:10.583Z,-3.20
2019-01-24T03:30:10.557Z,-3.20
2019-01-24T03:31:10.545Z,-3.16
2019-01-24T03:32:10.546Z,-3.22
2019-01-24T03:33:10.553Z,-3.23
2019-01-24T03:34:10.560Z,-3.10
2019-01-24T03:35:10.589Z,-3.17
2019-01-24T03:36:10.590Z,-3.04
2019-01-24T03:37:10.624Z,-3.02
2019-01-24T03:38:10.611Z,-3.10
2019-01-24T03:39:10.605Z,-3.07
2019-01-24T03:40:10.707Z,-3.02
2019-01-24T03:41:10.662Z,-3.12
2019-01-24T03:42:10.644Z,-2.99
2019-01-24T03:43:10.651Z,-3.02
2019-01-24T03:44:10.669Z,-3.04
2019-01-24T03:45:10.658Z,-3.25
2019-01-24T03:46:10.680Z,-3.25
2019-01-24T03:47:10.682Z,-3.27
2019-01-24T03:48:10.694Z,-3.30
2019-01-24T03:49:10.703Z,-3.34
2019-01-24T03:50:10.720Z,-3.22
2019-01-24T03:51:10.803Z,-3.34
2019-01-24T03:52:10.741Z,-3.37
2019-01-24T03:53:10.746Z,-3.40
2019-01-24T03:54:10.751Z,-3.51
2019-01-24T03:55:10.776Z,-3.22
2019-01-24T03:56:10.768Z,-3.15
2019-01-24T03:57:10.795Z,-3.13
2019-01-24T03:58:10.787Z,-3.15
2019-01-24T03:59:10.812Z,-3.22
2019-01-24T04:00:10.816Z,-3.12
2019-01-24T04:01:10.843Z,-3.10
2019-01-24T04:02:10.828Z,-3.23
2019-01-24T04:03:10.838Z,-3.37
2019-01-24T04:04:10.845Z,-3.38
2019-01-24T04:05:11.979Z,-3.58
2019-01-24T04:06:10.856Z,-3.56
2019-01-24T04:07:10.870Z,-3.55
2019-01-24T04:08:10.884Z,-3.56
2019-01-24T04:09:10.909Z,-3.52
2019-01-24T04:10:10.913Z,-3.54
2019-01-24T04:11:10.905Z,-3.51
2019-01-24T04:12:10.912Z,-3.51
2019-01-24T04:13:10.950Z,-3.67
2019-01-24T04:14:10.984Z,-3.63
2019-01-24T04:15:10.957Z,-3.55
2019-01-24T04:16:10.963Z,-3.64
2019-01-24T04:17:10.979Z,-3.64
2019-01-24T04:18:10.989Z,-3.69
2019-01-24T04:19:11.029Z,-3.56
2019-01-24T04:20:11.036Z,-3.63
2019-01-24T04:21:11.006Z,-3.74
2019-01-24T04:22:11.015Z,-3.58
2019-01-24T04:23:11.051Z,-3.59
2019-01-24T04:24:11.033Z,-3.70
2019-01-24T04:25:11.037Z,-3.70
2019-01-24T04:26:11.046Z,-3.64
2019-01-24T04:27:11.089Z,-3.66
2019-01-24T04:28:11.071Z,-3.67
2019-01-24T04:29:11.092Z,-3.56
2019-01-24T04:30:11.086Z,-3.72
2019-01-24T04:31:11.092Z,-3.69
2019-01-24T04:32:11.103Z,-3.64
2019-01-24T04:33:11.137Z,-3.69
2019-01-24T04:34:11.107Z,-3.66
2019-01-24T04:35:11.158Z,-3.55
2019-01-24T04:36:11.124Z,-3.63
2019-01-24T04:37:11.198Z,-3.56
2019-01-24T04:38:11.148Z,-3.59
2019-01-24T04:39:11.163Z,-3.49
2019-01-24T04:40:11.192Z,-3.54
2019-01-24T04:41:11.183Z,-3.52
2019-01-24T04:42:11.182Z,-3.49
2019-01-24T04:43:11.206Z,-3.38
2019-01-24T04:44:11.220Z,-3.34
2019-01-24T04:45:11.210Z,-3.44
2019-01-24T04:46:11.215Z,-3.44
2019-01-24T04:47:11.232Z,-3.51
2019-01-24T04:48:11.247Z,-3.40
2019-01-24T04:49:11.323Z,-3.44
2019-01-24T04:50:11.255Z,-3.49
2019-01-24T04:51:11.265Z,-3.40
2019-01-24T04:52:11.287Z,-3.38
2019-01-24T04:53:11.383Z,-3.41
2019-01-24T04:54:11.344Z,-3.27
2019-01-24T04:55:11.305Z,-3.23
2019-01-24T04:56:11.324Z,-3.25
2019-01-24T04:57:11.364Z,-3.40
2019-01-24T04:58:11.326Z,-3.34
2019-01-24T04:59:11.337Z,-3.19
2019-01-24T05:00:11.356Z,-3.16
2019-01-24T05:01:11.412Z,-3.22
2019-01-24T05:02:11.365Z,-3.28
2019-01-24T05:03:11.403Z,-3.52
2019-01-24T05:04:11.401Z,-3.58
2019-01-24T05:05:11.412Z,-3.49
2019-01-24T05:06:11.409Z,-3.55
2019-01-24T05:07:11.454Z,-3.58
2019-01-24T05:08:11.443Z,-3.52
2019-01-24T05:09:11.428Z,-3.49
2019-01-24T05:10:11.459Z,-3.63
2019-01-24T05:11:11.482Z,-3.55
2019-01-24T05:12:11.459Z,-3.66
2019-01-24T05:13:11.510Z,-3.77
2019-01-24T05:14:11.485Z,-3.70
2019-01-24T05:15:11.487Z,-3.77
2019-01-24T05:16:11.522Z,-3.72
2019-01-24T05:17:11.525Z,-3.63
2019-01-24T05:18:11.538Z,-3.58
2019-01-24T05:19:11.526Z,-3.69
2019-01-24T05:20:11.543Z,-3.80
2019-01-24T05:21:11.548Z,-3.89
2019-01-24T05:22:11.554Z,-3.86
2019-01-24T05:23:11.575Z,-3.86
2019-01-24T05:24:11.576Z,-3.72
2019-01-24T05:25:11.624Z,-3.96
2019-01-24T05:26:11.636Z,-4.12
2019-01-24T05:27:11.600Z,-4.03
2019-01-24T05:28:11.611Z,-4.10
2019-01-24T05:29:11.645Z,-4.04
2019-01-24T05:30:11.651Z,-4.09
2019-01-24T05:31:11.650Z,-4.12
2019-01-24T05:32:11.646Z,-4.07
2019-01-24T05:33:11.653Z,-4.12
2019-01-24T05:34:11.676Z,-4.09
2019-01-24T05:35:11.720Z,-4.16
2019-01-24T05:36:11.712Z,-4.10
2019-01-24T05:37:11.696Z,-4.13
2019-01-24T05:38:11.703Z,-4.21
2019-01-24T05:39:11.714Z,-4.25
2019-01-24T05:40:11.711Z,-4.06
2019-01-24T05:41:11.726Z,-3.98
2019-01-24T05:42:11.731Z,-4.12
2019-01-24T05:43:11.756Z,-4.12
2019-01-24T05:44:11.764Z,-4.03
2019-01-24T05:45:11.794Z,-4.13
2019-01-24T05:46:11.782Z,-4.02
2019-01-24T05:47:11.787Z,-4.02
2019-01-24T05:48:11.801Z,-4.09
2019-01-24T05:49:11.808Z,-4.16
2019-01-24T05:50:11.824Z,-4.21
2019-01-24T05:51:11.814Z,-4.27
2019-01-24T05:52:11.826Z,-4.21
2019-01-24T05:53:11.841Z,-4.34
2019-01-24T05:54:11.860Z,-4.22
2019-01-24T05:55:11.880Z,-4.27
2019-01-24T05:56:11.864Z,-4.30
2019-01-24T05:57:11.882Z,-4.39
2019-01-24T05:58:11.885Z,-4.31
2019-01-24T05:59:11.909Z,-4.30
2019-01-24T06:00:11.895Z,-4.27
2019-01-24T06:01:11.902Z,-4.25
2019-01-24T06:02:11.914Z,-4.53
2019-01-24T06:03:11.924Z,-4.41
2019-01-24T06:04:11.941Z,-4.42
2019-01-24T06:05:11.945Z,-4.45
2019-01-24T06:06:11.970Z,-4.48
2019-01-24T06:07:11.966Z,-4.57
2019-01-24T06:08:11.985Z,-4.48
2019-01-24T06:09:11.972Z,-4.49
2019-01-24T06:10:12.004Z,-4.53
2019-01-24T06:11:12.010Z,-4.48
2019-01-24T06:12:11.998Z,-4.38
2019-01-24T06:13:12.046Z,-4.41
2019-01-24T06:14:12.061Z,-4.43
2019-01-24T06:15:12.040Z,-4.53
2019-01-24T06:16:12.027Z,-4.48
2019-01-24T06:17:12.035Z,-4.55
2019-01-24T06:18:12.052Z,-4.42
2019-01-24T06:19:12.068Z,-4.55
2019-01-24T06:20:12.067Z,-4.53
2019-01-24T06:21:12.096Z,-4.48
2019-01-24T06:22:12.110Z,-4.50
2019-01-24T06:23:12.105Z,-4.45
2019-01-24T06:24:12.105Z,-4.46
2019-01-24T06:25:12.110Z,-4.55
2019-01-24T06:26:12.116Z,-4.49
2019-01-24T06:27:12.236Z,-4.45
2019-01-24T06:28:12.131Z,-4.48
2019-01-24T06:29:12.159Z,-4.52
2019-01-24T06:30:12.159Z,-4.57
2019-01-24T06:31:12.155Z,-4.49
2019-01-24T06:32:12.299Z,-4.38
2019-01-24T06:33:12.178Z,-4.32
2019-01-24T06:34:12.208Z,-4.28
2019-01-24T06:35:12.187Z,-4.35
2019-01-24T06:36:12.200Z,-4.32
2019-01-24T06:37:12.218Z,-4.27
2019-01-24T06:38:12.223Z,-4.30
2019-01-24T06:39:12.242Z,-4.39
2019-01-24T06:40:12.273Z,-4.39
2019-01-24T06:41:12.240Z,-4.38
2019-01-24T06:42:12.327Z,-4.45
2019-01-24T06:43:12.261Z,-4.38
2019-01-24T06:44:12.317Z,-4.41
2019-01-24T06:45:12.271Z,-4.41
2019-01-24T06:46:12.284Z,-4.41
2019-01-24T06:47:12.298Z,-4.43
2019-01-24T06:48:12.396Z,-4.35
2019-01-24T06:49:12.308Z,-4.39
2019-01-24T06:50:12.311Z,-4.39
2019-01-24T06:51:12.345Z,-4.48
2019-01-24T06:52:12.331Z,-4.41
2019-01-24T06:53:12.344Z,-4.41
2019-01-24T06:54:12.350Z,-4.32
2019-01-24T06:55:12.408Z,-4.25
2019-01-24T06:56:12.387Z,-4.39
2019-01-24T06:57:12.409Z,-4.34
2019-01-24T06:58:12.388Z,-4.30
2019-01-24T06:59:12.474Z,-4.24
2019-01-24T07:00:12.402Z,-4.32
2019-01-24T07:01:12.414Z,-4.21
2019-01-24T07:02:12.429Z,-4.07
2019-01-24T07:03:12.440Z,-4.06
2019-01-24T07:04:12.470Z,-4.13
2019-01-24T07:05:12.447Z,-4.04
2019-01-24T07:06:12.460Z,-3.96
2019-01-24T07:07:12.466Z,-4.07
2019-01-24T07:08:12.493Z,-4.06
2019-01-24T07:09:12.524Z,-4.03
2019-01-24T07:10:12.484Z,-3.80
2019-01-24T07:11:12.536Z,-3.74
2019-01-24T07:12:12.547Z,-3.85
2019-01-24T07:13:12.634Z,-3.82
2019-01-24T07:14:12.540Z,-3.99
2019-01-24T07:15:12.530Z,-3.86
2019-01-24T07:16:12.539Z,-3.85
2019-01-24T07:17:12.560Z,-3.66
2019-01-24T07:18:12.582Z,-3.82
2019-01-24T07:19:12.600Z,-3.74
2019-01-24T07:20:12.573Z,-3.61
2019-01-24T07:21:12.582Z,-3.55
2019-01-24T07:22:12.613Z,-3.54
2019-01-24T07:23:12.605Z,-3.37
2019-01-24T07:24:12.610Z,-3.38
2019-01-24T07:25:12.619Z,-3.51
2019-01-24T07:26:12.627Z,-3.61
2019-01-24T07:27:12.674Z,-3.55
2019-01-24T07:28:12.658Z,-3.46
2019-01-24T07:29:12.666Z,-3.34
2019-01-24T07:30:12.728Z,-3.56
2019-01-24T07:31:12.711Z,-3.52
2019-01-24T07:32:12.685Z,-3.51
2019-01-24T07:33:12.712Z,-3.35
2019-01-24T07:34:12.722Z,-3.27
2019-01-24T07:35:12.708Z,-3.34
2019-01-24T07:36:12.722Z,-3.40
2019-01-24T07:37:12.728Z,-3.23
2019-01-24T07:38:12.778Z,-3.35
2019-01-24T07:39:12.746Z,-3.27
2019-01-24T07:40:12.766Z,-3.25
2019-01-24T07:41:12.804Z,-3.20
2019-01-24T07:42:12.804Z,-3.22
2019-01-24T07:43:12.814Z,-3.13
2019-01-24T07:44:12.806Z,-3.19
2019-01-24T07:45:12.813Z,-3.17
2019-01-24T07:46:12.816Z,-3.02
2019-01-24T07:47:12.843Z,-3.10
2019-01-24T07:48:12.834Z,-3.09
2019-01-24T07:49:12.853Z,-2.97
2019-01-24T07:50:12.853Z,-3.07
2019-01-24T07:51:12.872Z,-3.12
2019-01-24T07:52:12.879Z,-3.07
2019-01-24T07:53:12.881Z,-3.04
2019-01-24T07:54:12.891Z,-2.92
2019-01-24T07:55:12.914Z,-2.99
2019-01-24T07:56:12.921Z,-3.01
2019-01-24T07:57:12.937Z,-3.01
2019-01-24T07:58:12.938Z,-2.97
2019-01-24T07:59:12.942Z,-3.04
2019-01-24T08:00:12.947Z,-2.94
2019-01-24T08:01:12.961Z,-2.98
2019-01-24T08:02:12.978Z,-2.98
2019-01-24T08:03:13.005Z,-2.91
2019-01-24T08:04:12.989Z,-3.01
2019-01-24T08:05:13.012Z,-2.89
2019-01-24T08:06:13.010Z,-2.98
2019-01-24T08:07:13.021Z,-3.01
2019-01-24T08:08:13.035Z,-2.91
2019-01-24T08:09:13.046Z,-2.92
2019-01-24T08:10:13.051Z,-2.83
2019-01-24T08:11:13.056Z,-2.94
2019-01-24T08:12:13.073Z,-2.88
2019-01-24T08:13:13.073Z,-2.95
2019-01-24T08:14:13.099Z,-2.83
2019-01-24T08:15:13.107Z,-2.83
2019-01-24T08:16:13.108Z,-2.83
2019-01-24T08:17:13.132Z,-2.76
2019-01-24T08:18:13.144Z,-2.94
2019-01-24T08:19:13.146Z,-2.77
2019-01-24T08:20:13.160Z,-2.73
2019-01-24T08:21:13.154Z,-2.76
2019-01-24T08:22:13.178Z,-2.70
2019-01-24T08:23:13.189Z,-2.83
2019-01-24T08:24:13.199Z,-2.71
2019-01-24T08:25:13.197Z,-2.74
2019-01-24T08:26:13.206Z,-2.62
2019-01-24T08:27:13.212Z,-2.62
2019-01-24T08:28:13.243Z,-2.73
2019-01-24T08:29:13.250Z,-2.70
2019-01-24T08:30:13.259Z,-2.65
2019-01-24T08:31:13.287Z,-2.70
2019-01-24T08:32:13.264Z,-2.74
2019-01-24T08:33:13.318Z,-2.83
2019-01-24T08:34:13.291Z,-2.91
2019-01-24T08:35:13.316Z,-2.91
2019-01-24T08:36:15.612Z,-2.78
2019-01-24T08:37:13.359Z,-2.59
2019-01-24T08:38:13.321Z,-2.56
2019-01-24T08:39:13.360Z,-2.40
2019-01-24T08:40:13.346Z,-2.25
2019-01-24T08:41:13.391Z,-2.19
2019-01-24T08:42:13.370Z,-2.44
2019-01-24T08:43:13.386Z,-2.47
2019-01-24T08:44:13.386Z,-2.71
2019-01-24T08:45:13.392Z,-2.59
2019-01-24T08:46:13.473Z,-2.53
2019-01-24T08:47:13.439Z,-2.63
2019-01-24T08:48:13.452Z,-2.60
2019-01-24T08:49:13.464Z,-2.28
2019-01-24T08:50:13.468Z,-2.30
2019-01-24T08:51:13.471Z,-2.45
2019-01-24T08:52:13.480Z,-2.47
2019-01-24T08:53:13.531Z,-2.28
2019-01-24T08:54:13.537Z,-2.23
2019-01-24T08:55:13.507Z,-2.05
2019-01-24T08:56:13.515Z,-2.21
2019-01-24T08:57:13.519Z,-2.25
2019-01-24T08:58:13.551Z,-2.18
2019-01-24T08:59:13.550Z,-2.16
2019-01-24T09:00:13.573Z,-2.25
2019-01-24T09:01:13.585Z,-2.37
2019-01-24T09:02:13.579Z,-2.13
2019-01-24T09:03:13.578Z,-2.15
2019-01-24T09:04:13.594Z,-2.34
2019-01-24T09:05:13.616Z,-2.44
2019-01-24T09:06:13.635Z,-2.41
2019-01-24T09:07:13.623Z,-2.35
2019-01-24T09:08:13.633Z,-2.53
2019-01-24T09:09:13.658Z,-2.38
2019-01-24T09:10:13.695Z,-2.37
2019-01-24T09:11:13.745Z,-2.18
2019-01-24T09:12:13.683Z,-2.18
2019-01-24T09:13:13.687Z,-2.10
2019-01-24T09:14:13.697Z,-2.13
2019-01-24T09:15:13.714Z,-2.22
2019-01-24T09:16:13.756Z,-2.07
2019-01-24T09:17:13.746Z,-2.01
2019-01-24T09:18:13.740Z,-1.89
2019-01-24T09:19:13.759Z,-2.13
2019-01-24T09:20:13.770Z,-2.00
2019-01-24T09:21:13.776Z,-2.07
2019-01-24T09:22:13.789Z,-2.01
2019-01-24T09:23:13.787Z,-1.92
2019-01-24T09:24:13.805Z,-2.05
2019-01-24T09:25:13.810Z,-2.12
2019-01-24T09:26:13.829Z,-1.92
2019-01-24T09:27:13.835Z,-1.80
2019-01-24T09:28:14.900Z,-2.02
2019-01-24T09:29:13.866Z,-1.82
2019-01-24T09:30:13.871Z,-1.76
2019-01-24T09:31:13.948Z,-1.97
2019-01-24T09:32:13.895Z,-2.07
2019-01-24T09:33:13.912Z,-2.01
2019-01-24T09:34:13.902Z,-2.04
2019-01-24T09:35:13.922Z,-1.80
2019-01-24T09:36:13.926Z,-1.92
2019-01-24T09:37:13.946Z,-1.80
2019-01-24T09:38:13.961Z,-1.76
2019-01-24T09:39:13.973Z,-1.84
2019-01-24T09:40:13.973Z,-1.71
2019-01-24T09:41:14.008Z,-1.61
2019-01-24T09:42:14.706Z,-1.72
2019-01-24T09:43:14.025Z,-1.90
2019-01-24T09:44:14.020Z,-1.68
2019-01-24T09:45:14.035Z,-1.72
2019-01-24T09:46:14.048Z,-1.54
2019-01-24T09:47:14.039Z,-1.74
2019-01-24T09:48:14.060Z,-1.90
2019-01-24T09:49:14.064Z,-1.90
2019-01-24T09:50:14.094Z,-1.76
2019-01-24T09:51:14.093Z,-1.51
2019-01-24T09:52:14.149Z,-1.64
2019-01-24T09:53:14.106Z,-1.66
2019-01-24T09:54:14.122Z,-1.79
2019-01-24T09:55:14.131Z,-1.79
2019-01-24T09:56:14.167Z,-1.79
2019-01-24T09:57:14.166Z,-1.56
2019-01-24T09:58:14.164Z,-1.47
2019-01-24T09:59:14.186Z,-1.29
2019-01-24T10:00:15.630Z,-1.23
2019-01-24T10:01:14.263Z,-1.12
2019-01-24T10:02:14.209Z,-1.20
2019-01-24T10:03:14.245Z,-1.19
2019-01-24T10:04:14.297Z,-1.11
2019-01-24T10:05:14.232Z,-1.08
2019-01-24T10:06:14.266Z,-1.02
2019-01-24T10:07:14.269Z,-0.89
2019-01-24T10:08:14.273Z,-1.23
2019-01-24T10:09:14.284Z,-1.30
2019-01-24T10:10:14.293Z,-1.12
2019-01-24T10:11:14.314Z,-1.08
2019-01-24T10:12:14.344Z,-1.11
2019-01-24T10:13:14.340Z,-1.14
2019-01-24T10:14:14.349Z,-1.12
2019-01-24T10:15:14.396Z,-1.11
2019-01-24T10:16:14.361Z,-1.11
2019-01-24T10:17:14.394Z,-0.85
2019-01-24T10:18:14.388Z,-0.94
2019-01-24T10:19:14.389Z,-0.72
2019-01-24T10:20:14.412Z,-0.59
2019-01-24T10:21:14.419Z,-0.56
2019-01-24T10:22:14.434Z,-0.56
2019-01-24T10:23:14.446Z,-0.53
2019-01-24T10:24:14.459Z,-0.54
2019-01-24T10:25:15.540Z,-0.64
2019-01-24T10:26:14.486Z,-0.59
2019-01-24T10:27:14.488Z,-0.72
2019-01-24T10:28:14.531Z,-0.64
2019-01-24T10:29:14.508Z,-0.59
2019-01-24T10:30:14.538Z,-0.59
2019-01-24T10:31:14.543Z,-0.46
2019-01-24T10:32:14.550Z,-0.31
2019-01-24T10:33:14.562Z,-0.35
2019-01-24T10:34:14.598Z,-0.75
2019-01-24T10:35:14.577Z,-0.74
2019-01-24T10:36:14.609Z,-0.64
2019-01-24T10:37:14.602Z,-0.80
2019-01-24T10:38:14.617Z,-0.64
2019-01-24T10:39:14.626Z,-0.75
2019-01-24T10:40:14.659Z,-0.75
2019-01-24T10:41:14.648Z,-0.62
2019-01-24T10:42:14.678Z,-0.52
2019-01-24T10:43:14.672Z,-0.49
2019-01-24T10:44:14.688Z,-0.64
2019-01-24T10:45:14.699Z,-0.71
2019-01-24T10:46:14.709Z,-0.65
2019-01-24T10:47:14.731Z,-0.53
2019-01-24T10:48:14.736Z,-0.47
2019-01-24T10:49:14.751Z,-0.46
2019-01-24T10:50:14.774Z,-0.52
2019-01-24T10:51:14.801Z,-0.36
2019-01-24T10:52:14.801Z,-0.36
2019-01-24T10:53:14.811Z,-0.70
2019-01-24T10:54:14.806Z,-0.86
2019-01-24T10:55:14.824Z,-0.97
2019-01-24T10:56:14.855Z,-1.17
2019-01-24T10:57:14.836Z,-1.23
2019-01-24T10:58:14.852Z,-1.22
2019-01-24T10:59:14.859Z,-1.26
2019-01-24T11:00:14.892Z,-1.25
2019-01-24T11:01:14.923Z,-1.14
2019-01-24T11:02:14.906Z,-1.12
2019-01-24T11:03:14.912Z,-1.04
2019-01-24T11:04:14.919Z,-1.11
2019-01-24T11:05:14.939Z,-1.23
2019-01-24T11:06:14.945Z,-1.09
2019-01-24T11:07:14.954Z,-1.20
2019-01-24T11:08:14.964Z,-1.07
2019-01-24T11:09:14.990Z,-1.05
2019-01-24T11:10:14.997Z,-0.83
2019-01-24T11:11:15.003Z,-0.83
2019-01-24T11:12:15.022Z,-0.83
2019-01-24T11:13:15.028Z,-0.70
2019-01-24T11:14:15.048Z,-0.77
2019-01-24T11:15:15.053Z,-0.65
2019-01-24T11:16:15.114Z,-0.41
2019-01-24T11:17:15.115Z,-0.43
2019-01-24T11:18:15.087Z,-0.21
2019-01-24T11:19:15.103Z,-0.25
2019-01-24T11:20:15.102Z,-0.15
2019-01-24T11:21:15.117Z,-0.14
2019-01-24T11:22:15.143Z,-0.07
2019-01-24T11:23:15.145Z,-0.06
2019-01-24T11:24:15.163Z,0.08
2019-01-24T11:25:15.169Z,0.12
2019-01-24T11:26:15.221Z,0.07
2019-01-24T11:27:15.186Z,0.08
2019-01-24T11:28:15.214Z,0.29
2019-01-24T11:29:15.224Z,0.22
2019-01-24T11:30:15.239Z,0.32
2019-01-24T11:31:15.234Z,0.44
2019-01-24T11:32:15.251Z,0.49
2019-01-24T11:33:15.264Z,0.28
2019-01-24T11:34:15.990Z,0.46
2019-01-24T11:35:15.284Z,0.50
2019-01-24T11:36:15.335Z,0.59
2019-01-24T11:37:15.317Z,0.46
2019-01-24T11:38:15.349Z,0.41
2019-01-24T11:39:15.342Z,0.50
2019-01-24T11:40:15.358Z,0.31
2019-01-24T11:41:15.364Z,0.34
2019-01-24T11:42:15.376Z,0.37
2019-01-24T11:43:15.409Z,0.28
2019-01-24T11:44:15.456Z,0.39
2019-01-24T11:45:15.425Z,0.34
2019-01-24T11:46:15.418Z,0.39
2019-01-24T11:47:15.452Z,0.39
2019-01-24T11:48:15.466Z,0.34
2019-01-24T11:49:15.467Z,0.28
2019-01-24T11:50:15.513Z,0.16
2019-01-24T11:51:15.482Z,0.15
2019-01-24T11:52:15.523Z,0.37
2019-01-24T11:53:15.520Z,0.32
2019-01-24T11:54:15.550Z,0.26
2019-01-24T11:55:15.532Z,0.34
2019-01-24T11:56:15.641Z,0.34
2019-01-24T11:57:15.575Z,0.23
2019-01-24T11:58:15.605Z,0.41
2019-01-24T11:59:15.590Z,0.28
2019-01-24T12:00:15.610Z,0.18
2019-01-24T12:01:15.608Z,0.08
2019-01-24T12:02:15.625Z,0.00
2019-01-24T12:03:15.662Z,0.01
2019-01-24T12:04:15.675Z,-0.06
2019-01-24T12:05:15.662Z,-0.15
2019-01-24T12:06:15.668Z,0.07
2019-01-24T12:07:15.680Z,0.01
2019-01-24T12:08:15.690Z,0.07
2019-01-24T12:09:15.724Z,0.16
2019-01-24T12:10:15.717Z,0.18
2019-01-24T12:11:15.727Z,0.34
2019-01-24T12:12:15.747Z,0.37
2019-01-24T12:13:15.762Z,0.34
2019-01-24T12:14:15.769Z,0.41
2019-01-24T12:15:15.785Z,0.29
2019-01-24T12:16:15.800Z,0.25
2019-01-24T12:17:15.803Z,0.37
2019-01-24T12:18:15.913Z,0.11
2019-01-24T12:19:15.860Z,0.23
2019-01-24T12:20:15.844Z,0.16
2019-01-24T12:21:15.861Z,0.32
2019-01-24T12:22:15.865Z,-0.03
2019-01-24T12:23:15.899Z,-0.43
2019-01-24T12:24:15.935Z,-0.38
2019-01-24T12:25:15.918Z,-0.41
2019-01-24T12:26:15.919Z,-0.35
2019-01-24T12:27:15.934Z,-0.17
2019-01-24T12:28:15.990Z,-0.06
2019-01-24T12:29:15.967Z,-0.07
2019-01-24T12:30:16.000Z,0.07
2019-01-24T12:31:15.997Z,0.15
2019-01-24T12:32:16.032Z,0.03
2019-01-24T12:33:16.032Z,0.18
2019-01-24T12:34:16.021Z,-0.02
2019-01-24T12:35:16.034Z,-0.26
2019-01-24T12:36:16.038Z,-0.36
2019-01-24T12:37:16.058Z,-0.44
2019-01-24T12:38:16.066Z,-0.39
2019-01-24T12:39:16.080Z,-0.18
2019-01-24T12:40:16.092Z,-0.28
2019-01-24T12:41:16.106Z,-0.25
2019-01-24T12:42:16.149Z,0.04
2019-01-24T12:43:16.120Z,0.05
2019-01-24T12:44:16.135Z,0.21
2019-01-24T12:45:16.152Z,0.15
2019-01-24T12:46:16.161Z,-0.03
2019-01-24T12:47:16.189Z,0.10
2019-01-24T12:48:16.200Z,-0.11
2019-01-24T12:49:16.212Z,-0.11
2019-01-24T12:50:16.212Z,0.08
2019-01-24T12:51:16.228Z,0.07
2019-01-24T12:52:16.239Z,0.05
2019-01-24T12:53:16.269Z,0.10
2019-01-24T12:54:16.261Z,0.15
2019-01-24T12:55:16.319Z,-0.06